< Typhoon 199722 1997 Season Typhoon 199724 >
Typhoon 199723 (IVAN)
General InformationTrack Information on Google MapsDetailed Wind InformationList of All Images || Disaster Info.ResourceGoogle EarthGE AnimationAtom FeedGeoJSON
Detalied Best Track (Time Zone = UTC)
Year Month Day Hour Lat. Long. Pressure (hPa) Wind (kt) Class Image Chart
1997 10 13 00 10.8 155.5 1008 0 2 Image Chart
1997 10 13 06 10.9 153.6 1006 0 2 Image Chart
1997 10 13 12 11.1 151.5 1004 0 2 Image Chart
1997 10 13 18 11.5 149.8 1002 0 2 Image Chart
1997 10 14 00 11.9 148.5 1000 0 2 Image Chart
1997 10 14 03 12.0 147.7 1000 35 3 Image Chart
1997 10 14 06 12.0 146.8 998 35 3 Image Chart
1997 10 14 12 12.2 145.0 996 35 3 Image Chart
1997 10 14 18 12.5 143.5 994 40 3 Image Chart
1997 10 15 00 13.0 142.1 992 40 3 Image Chart
1997 10 15 06 13.5 141.0 990 45 3 Image Chart
1997 10 15 12 14.2 139.8 985 50 4 Image Chart
1997 10 15 18 14.5 138.9 980 55 4 Image Chart
1997 10 16 00 14.4 137.4 970 65 5 Image Chart
1997 10 16 06 14.5 136.2 960 75 5 Image Chart
1997 10 16 12 14.6 134.7 950 85 5 Image Chart
1997 10 16 18 14.8 133.0 940 90 5 Image Chart
1997 10 17 00 14.6 131.8 925 95 5 Image Chart
1997 10 17 06 14.6 130.6 915 100 5 Image Chart
1997 10 17 12 14.6 129.5 905 105 5 Image Chart
1997 10 17 18 14.7 128.3 905 105 5 Image Chart
1997 10 18 00 14.9 127.2 905 105 5 Image Chart
1997 10 18 06 15.2 126.3 905 105 5 Image Chart
1997 10 18 12 15.6 125.5 910 105 5 Image Chart
1997 10 18 18 16.0 124.8 915 100 5 Image Chart
1997 10 19 00 16.6 124.0 915 100 5 Image Chart
1997 10 19 06 17.2 123.4 920 100 5 Image Chart
1997 10 19 12 17.5 122.7 925 95 5 Image Chart
1997 10 19 18 18.0 122.4 935 90 5 Image Chart
1997 10 20 00 18.2 122.4 945 85 5 Image Chart
1997 10 20 06 18.5 122.2 955 75 5 Image Chart
1997 10 20 12 18.9 122.2 960 70 5 Image Chart
1997 10 20 18 19.2 122.3 970 65 5 Image Chart
1997 10 21 00 19.7 123.1 980 55 4 Image Chart
1997 10 21 06 19.9 123.8 985 50 4 Image Chart
1997 10 21 12 20.1 124.6 990 45 3 Image Chart
1997 10 21 18 20.2 125.6 990 45 3 Image Chart
1997 10 22 00 20.6 126.1 990 45 3 Image Chart
1997 10 22 06 21.2 126.7 990 45 3 Image Chart
1997 10 22 12 21.8 127.3 990 45 3 Image Chart
1997 10 22 18 22.6 128.2 990 45 3 Image Chart
1997 10 23 00 23.3 129.1 990 45 3 Image Chart
1997 10 23 03 23.8 129.6 990 45 3 Image Chart
1997 10 23 06 24.2 130.0 990 45 3 Image Chart
1997 10 23 09 24.5 130.5 990 45 3 Image Chart
1997 10 23 12 24.8 131.1 990 45 3 Image Chart
1997 10 23 15 25.0 131.6 990 45 3 Image Chart
1997 10 23 18 25.2 132.1 990 45 3 Image Chart
1997 10 23 21 25.5 132.7 990 45 3 Image Chart
1997 10 24 00 26.0 133.4 992 45 3 Image Chart
1997 10 24 03 26.5 134.2 992 45 3 Image Chart
1997 10 24 06 26.9 134.9 994 40 3 Image Chart
1997 10 24 12 27.5 136.5 994 40 3 Image Chart
1997 10 24 18 28.2 138.0 996 35 3 Image Chart
1997 10 25 00 28.7 139.6 996 35 3 Image Chart
1997 10 25 06 29.0 141.2 998 0 6 Image Chart
1997 10 25 12 29.5 143.2 1000 0 6 Image Chart
1997 10 25 18 29.9 145.7 1000 0 6 Image Chart
1997 10 26 00 30.0 148.0 1000 0 6 Image Chart
1997 10 26 06 30.9 151.1 1000 0 6 Image Chart
1997 10 26 12 32.6 154.0 1000 0 6 Image Chart
1997 10 26 18 33.8 157.4 1000 0 6 Image Chart
Japan Meteorological Agency Best Track Data | Correction Date : 1998-01-19
< Typhoon 199722 1997 Season Typhoon 199724 >

Help